Bockoe — 5BRN4 — position and weather

sailwx.info

Track history (hours):
 
Tides and Currents Weather Stations Pressure Air Temp Water Temp Dewpoint Dewpoint Depression Visibility Wind Speed Wind Dir Waves Ship Positions

Bockoe

Last reported at 2018-Jun-25 17:30 UTC. Time now 2018-Jun-25 17:34 UTC.
Position N 51°07' E 004°18'.

Length 107 m; draft 4.6 m.

Type: Ship. MMSI: 212389000.

Date/timePositionNaut miles runAvg speedWind from/ knotsBaromVisibWave heightAir tempDewpointWater temp
2018-Jun-25 17:30N 51°07' E 004°18'2 2.7
2018-Jun-25 16:55N 51°09' E 004°20'3 6.5
2018-Jun-25 16:30N 51°11' E 004°20'3 6.0
2018-Jun-25 16:00N 51°13' E 004°24'1 1.8
2018-Jun-25 15:30N 51°14' E 004°24'4 7.3
2018-Jun-25 15:01N 51°15' E 004°19'4 6.9
2018-Jun-25 14:30N 51°18' E 004°16'5 9.1
2018-Jun-25 13:59N 51°23' E 004°13'3 7.2
2018-Jun-25 13:30N 51°22' E 004°07'4 8.9
2018-Jun-25 13:01N 51°25' E 004°02'4 7.3
2018-Jun-25 12:30N 51°23' E 003°57'611.5
2018-Jun-25 12:00N 51°21' E 003°48'611.7
2018-Jun-25 11:30N 51°25' E 003°41'611.2
2018-Jun-25 11:00N 51°27' E 003°33'611.4
2018-Jun-25 10:30N 51°31' E 003°26'611.2
2018-Jun-25 09:56N 51°37' E 003°22'511.6
2018-Jun-25 09:29N 51°41' E 003°18'511.0
2018-Jun-25 09:00N 51°46' E 003°16'510.8
2018-Jun-25 08:30N 51°52' E 003°16'610.2
2018-Jun-25 07:55N 51°57' E 003°18'5 9.6
2018-Jun-25 07:24N 52°02' E 003°20'610.0
2018-Jun-25 06:50N 52°08' E 003°21'310.0
2018-Jun-25 06:29N 52°11' E 003°22'610.2
2018-Jun-25 05:56N 52°17' E 003°24'510.4
2018-Jun-25 05:29N 52°21' E 003°25'510.7
2018-Jun-25 05:00N 52°27' E 003°27'811.1
2018-Jun-25 04:16N 52°35' E 003°29'1210.2
2018-Jun-25 03:06N 52°44' E 003°41'110.1
2018-Jun-25 02:57N 52°45' E 003°42'6010.2
2018-Jun-24 21:02N 53°30' E 004°48'111.7
2018-Jun-24 20:55N 53°31' E 004°50'511.6
2018-Jun-24 20:30N 53°33' E 004°58'11310.3
2018-Jun-24 09:31N 54°01' E 008°03'010.1
2018-Jun-24 09:28N 54°01' E 008°04'510.2
2018-Jun-24 08:59N 54°00' E 008°12'5 9.6
2018-Jun-24 08:30N 53°60' E 008°20'5 9.7
2018-Jun-24 08:00N 53°59' E 008°28'4 8.9
2018-Jun-24 07:30N 53°58' E 008°35'4 7.8
2018-Jun-24 07:00N 53°55' E 008°41'4 8.0
2018-Jun-24 06:31N 53°52' E 008°44'4 8.2
2018-Jun-24 06:00N 53°50' E 008°51'510.3
2018-Jun-24 05:30N 53°51' E 008°59'611.3
2018-Jun-24 05:00N 53°53' E 009°08'1 1.0
2018-Jun-24 04:30N 53°54' E 009°09'1 2.1
2018-Jun-24 04:01N 53°54' E 009°10'4 8.0
2018-Jun-24 03:30N 53°57' E 009°15'4 8.3
2018-Jun-24 03:00N 54°01' E 009°18'4 7.8
2018-Jun-24 02:31N 54°05' E 009°19'5 2.9
2018-Jun-24 00:55N 54°09' E 009°22'3 7.3
2018-Jun-24 00:30N 54°10' E 009°27'4 8.7
2018-Jun-23 23:59N 54°12' E 009°34'4 7.3
2018-Jun-23 23:29N 54°15' E 009°37'1 2.7
2018-Jun-23 23:00N 54°16' E 009°38'4 7.2
2018-Jun-23 22:30N 54°19' E 009°43'12 5.6
2018-Jun-23 20:20N 54°22' E 010°03'3 7.9
2018-Jun-23 20:00N 54°22' E 010°07'1 1.6
2018-Jun-23 19:30N 54°22' E 010°09'1 2.0
2018-Jun-23 19:00N 54°22' E 010°10'0 0.1
2018-Jun-23 18:30N 54°22' E 010°10'0 0.3
2018-Jun-23 18:00N 54°22' E 010°10'2 4.4
2018-Jun-23 17:30N 54°24' E 010°12'510.8
2018-Jun-23 17:00N 54°29' E 010°16'13 7.8
2018-Jun-23 15:25N 54°34' E 010°36'4 9.8
2018-Jun-23 15:00N 54°35' E 010°42'5 9.4
2018-Jun-23 14:30N 54°35' E 010°50'4 8.7
2018-Jun-23 14:00N 54°36' E 010°58'5 9.2
2018-Jun-23 13:30N 54°36' E 011°06'4 7.9
2018-Jun-23 13:00N 54°35' E 011°12'4 7.8
2018-Jun-23 12:30N 54°34' E 011°19'4 8.6
2018-Jun-23 12:00N 54°32' E 011°25'510.0
2018-Jun-23 11:30N 54°30' E 011°33'5 9.8
2018-Jun-23 11:00N 54°28' E 011°41'5 9.8
2018-Jun-23 10:30N 54°27' E 011°49'5 9.5
2018-Jun-23 10:00N 54°26' E 011°57'73 9.5
2018-Jun-23 02:19N 55°01' E 013°49'10 9.9
2018-Jun-23 01:16N 55°05' E 014°05'310.3
2018-Jun-23 00:58N 55°08' E 014°08'610.3
2018-Jun-23 00:25N 55°12' E 014°15'410.6
2018-Jun-23 00:00N 55°16' E 014°20'510.7
2018-Jun-22 23:30N 55°20' E 014°26'610.8
2018-Jun-22 23:00N 55°24' E 014°32'710.6
2018-Jun-22 22:23N 55°28' E 014°40'510.7
2018-Jun-22 21:55N 55°31' E 014°48'1410.5
2018-Jun-22 20:33N 55°38' E 015°10'210.7
2018-Jun-22 20:25N 55°38' E 015°12'  
Track history (hours):
 
Tides and Currents Weather Stations Pressure Air Temp Water Temp Dewpoint Dewpoint Depression Visibility Wind Speed Wind Dir Waves Ship Positions

Bockoe

Last reported at 2018-Jun-25 17:30 UTC. Time now 2018-Jun-25 17:34 UTC.
Position N 51°07' E 004°18'.

Length 107 m; draft 4.6 m.

Type: Ship. MMSI: 212389000.

Date/timePositionNaut miles runAvg speedWind from/ knotsBaromVisibWave heightAir tempDewpointWater temp
2018-Jun-25 17:30N 51°07' E 004°18'2 2.7
2018-Jun-25 16:55N 51°09' E 004°20'3 6.5
2018-Jun-25 16:30N 51°11' E 004°20'3 6.0
2018-Jun-25 16:00N 51°13' E 004°24'1 1.8
2018-Jun-25 15:30N 51°14' E 004°24'4 7.3
2018-Jun-25 15:01N 51°15' E 004°19'4 6.9
2018-Jun-25 14:30N 51°18' E 004°16'5 9.1
2018-Jun-25 13:59N 51°23' E 004°13'3 7.2
2018-Jun-25 13:30N 51°22' E 004°07'4 8.9
2018-Jun-25 13:01N 51°25' E 004°02'4 7.3
2018-Jun-25 12:30N 51°23' E 003°57'611.5
2018-Jun-25 12:00N 51°21' E 003°48'611.7
2018-Jun-25 11:30N 51°25' E 003°41'611.2
2018-Jun-25 11:00N 51°27' E 003°33'611.4
2018-Jun-25 10:30N 51°31' E 003°26'611.2
2018-Jun-25 09:56N 51°37' E 003°22'511.6
2018-Jun-25 09:29N 51°41' E 003°18'511.0
2018-Jun-25 09:00N 51°46' E 003°16'510.8
2018-Jun-25 08:30N 51°52' E 003°16'610.2
2018-Jun-25 07:55N 51°57' E 003°18'5 9.6
2018-Jun-25 07:24N 52°02' E 003°20'610.0
2018-Jun-25 06:50N 52°08' E 003°21'310.0
2018-Jun-25 06:29N 52°11' E 003°22'610.2
2018-Jun-25 05:56N 52°17' E 003°24'510.4
2018-Jun-25 05:29N 52°21' E 003°25'510.7
2018-Jun-25 05:00N 52°27' E 003°27'811.1
2018-Jun-25 04:16N 52°35' E 003°29'1210.2
2018-Jun-25 03:06N 52°44' E 003°41'110.1
2018-Jun-25 02:57N 52°45' E 003°42'6010.2
2018-Jun-24 21:02N 53°30' E 004°48'111.7
2018-Jun-24 20:55N 53°31' E 004°50'511.6
2018-Jun-24 20:30N 53°33' E 004°58'11310.3
2018-Jun-24 09:31N 54°01' E 008°03'010.1
2018-Jun-24 09:28N 54°01' E 008°04'510.2
2018-Jun-24 08:59N 54°00' E 008°12'5 9.6
2018-Jun-24 08:30N 53°60' E 008°20'5 9.7
2018-Jun-24 08:00N 53°59' E 008°28'4 8.9
2018-Jun-24 07:30N 53°58' E 008°35'4 7.8
2018-Jun-24 07:00N 53°55' E 008°41'4 8.0
2018-Jun-24 06:31N 53°52' E 008°44'4 8.2
2018-Jun-24 06:00N 53°50' E 008°51'510.3
2018-Jun-24 05:30N 53°51' E 008°59'611.3
2018-Jun-24 05:00N 53°53' E 009°08'1 1.0
2018-Jun-24 04:30N 53°54' E 009°09'1 2.1
2018-Jun-24 04:01N 53°54' E 009°10'4 8.0
2018-Jun-24 03:30N 53°57' E 009°15'4 8.3
2018-Jun-24 03:00N 54°01' E 009°18'4 7.8
2018-Jun-24 02:31N 54°05' E 009°19'5 2.9
2018-Jun-24 00:55N 54°09' E 009°22'3 7.3
2018-Jun-24 00:30N 54°10' E 009°27'4 8.7
2018-Jun-23 23:59N 54°12' E 009°34'4 7.3
2018-Jun-23 23:29N 54°15' E 009°37'1 2.7
2018-Jun-23 23:00N 54°16' E 009°38'4 7.2
2018-Jun-23 22:30N 54°19' E 009°43'12 5.6
2018-Jun-23 20:20N 54°22' E 010°03'3 7.9
2018-Jun-23 20:00N 54°22' E 010°07'1 1.6
2018-Jun-23 19:30N 54°22' E 010°09'1 2.0
2018-Jun-23 19:00N 54°22' E 010°10'0 0.1
2018-Jun-23 18:30N 54°22' E 010°10'0 0.3
2018-Jun-23 18:00N 54°22' E 010°10'2 4.4
2018-Jun-23 17:30N 54°24' E 010°12'510.8
2018-Jun-23 17:00N 54°29' E 010°16'13 7.8
2018-Jun-23 15:25N 54°34' E 010°36'4 9.8
2018-Jun-23 15:00N 54°35' E 010°42'5 9.4
2018-Jun-23 14:30N 54°35' E 010°50'4 8.7
2018-Jun-23 14:00N 54°36' E 010°58'5 9.2
2018-Jun-23 13:30N 54°36' E 011°06'4 7.9
2018-Jun-23 13:00N 54°35' E 011°12'4 7.8
2018-Jun-23 12:30N 54°34' E 011°19'4 8.6
2018-Jun-23 12:00N 54°32' E 011°25'510.0
2018-Jun-23 11:30N 54°30' E 011°33'5 9.8
2018-Jun-23 11:00N 54°28' E 011°41'5 9.8
2018-Jun-23 10:30N 54°27' E 011°49'5 9.5
2018-Jun-23 10:00N 54°26' E 011°57'73 9.5
2018-Jun-23 02:19N 55°01' E 013°49'10 9.9
2018-Jun-23 01:16N 55°05' E 014°05'310.3
2018-Jun-23 00:58N 55°08' E 014°08'610.3
2018-Jun-23 00:25N 55°12' E 014°15'410.6
2018-Jun-23 00:00N 55°16' E 014°20'510.7
2018-Jun-22 23:30N 55°20' E 014°26'610.8
2018-Jun-22 23:00N 55°24' E 014°32'710.6
2018-Jun-22 22:23N 55°28' E 014°40'510.7
2018-Jun-22 21:55N 55°31' E 014°48'1410.5
2018-Jun-22 20:33N 55°38' E 015°10'210.7
2018-Jun-22 20:25N 55°38' E 015°12'  

Dump ship's entire track history